Time;durP1;ratioP1;P1;durP2;ratioP2;P2;SDS_P1;SDS_P2;PMS_P1;PMS_P2;Temp;Humidity;BMP_temperature;BMP_pressure;BME280_temperature;BME280_humidity;BME280_pressure;Samples;Min_cycle;Max_cycle;Signal;HPM_P1;HPM_P2
2022/08/20 00:00:14;;;;;;;8.95;5.72;;;;;19.30;96177.00;;;;8296161;28;20304;-70
2022/08/20 00:04:19;;;;;;;5.55;5.10;;;;;19.30;96175.00;;;;8297008;28;20689;-69
2022/08/20 00:08:22;;;;;;;5.70;5.20;;;;;19.30;96187.00;;;;8296796;28;20296;-69
2022/08/20 00:12:56;;;;;;;6.50;5.55;;;;;19.20;96192.00;;;;8296240;28;20293;-69
2022/08/20 00:16:59;;;;;;;6.35;4.88;;;;;19.20;96193.00;;;;8295754;28;20661;-69
2022/08/20 00:21:07;;;;;;;7.55;5.45;;;;;19.20;96196.00;;;;8296272;28;20407;-68
2022/08/20 00:25:11;;;;;;;7.75;5.38;;;;;19.20;96189.00;;;;8295543;28;20316;-69
2022/08/20 00:29:15;;;;;;;5.25;4.72;;;;;19.20;96190.00;;;;8296154;28;20252;-69
2022/08/20 00:33:23;;;;;;;5.43;4.93;;;;;19.20;96189.00;;;;8296262;28;20225;-69
2022/08/20 00:37:27;;;;;;;5.55;5.05;;;;;19.20;96182.00;;;;8295151;28;20222;-68
2022/08/20 00:41:31;;;;;;;6.78;5.25;;;;;19.20;96179.00;;;;8295525;28;20755;-68
2022/08/20 00:45:35;;;;;;;5.32;4.82;;;;;19.20;96183.00;;;;8295128;28;20610;-69
2022/08/20 00:49:39;;;;;;;7.80;5.35;;;;;19.30;96183.00;;;;8296055;28;20221;-70
2022/08/20 00:53:44;;;;;;;5.30;4.82;;;;;19.20;96183.00;;;;8294846;28;20636;-70
2022/08/20 00:57:52;;;;;;;4.82;4.30;;;;;19.30;96184.00;;;;8294992;28;20622;-70
2022/08/20 01:02:24;;;;;;;4.38;3.97;;;;;19.30;96180.00;;;;8295278;28;20232;-70
2022/08/20 01:06:27;;;;;;;6.30;4.78;;;;;19.30;96186.00;;;;8293575;28;20304;-70
2022/08/20 01:10:35;;;;;;;4.93;4.20;;;;;19.30;96175.00;;;;8295562;28;20641;-69
2022/08/20 01:15:07;;;;;;;6.15;4.47;;;;;19.30;96171.00;;;;8294728;28;20308;-70
2022/08/20 01:19:13;;;;;;;6.72;3.97;;;;;19.30;96174.00;;;;8294411;28;20224;-70
2022/08/20 01:23:40;;;;;;;4.70;4.30;;;;;19.20;96176.00;;;;8294445;28;20249;-70
2022/08/20 01:28:10;;;;;;;4.68;4.22;;;;;19.20;96174.00;;;;8295850;28;20225;-70
2022/08/20 01:32:13;;;;;;;4.72;4.32;;;;;19.20;96178.00;;;;8294251;28;20224;-69
2022/08/20 01:36:20;;;;;;;5.63;4.47;;;;;19.20;96178.00;;;;8294771;28;20601;-70
2022/08/20 01:40:38;;;;;;;4.93;4.07;;;;;19.20;96178.00;;;;8294625;28;20347;-69
2022/08/20 01:45:02;;;;;;;5.30;3.88;;;;;19.20;96180.00;;;;8294614;28;20218;-69
2022/08/20 01:49:12;;;;;;;5.78;4.40;;;;;19.30;96175.00;;;;8296354;28;20229;-70
2022/08/20 01:53:28;;;;;;;4.90;4.40;;;;;19.30;96171.00;;;;8301287;28;20217;-70
2022/08/20 01:57:59;;;;;;;4.70;4.22;;;;;19.30;96178.00;;;;8300217;28;20225;-70
2022/08/20 02:02:04;;;;;;;4.47;4.18;;;;;19.40;96176.00;;;;8300087;28;20321;-70
2022/08/20 02:06:07;;;;;;;5.22;4.40;;;;;19.40;96174.00;;;;8300407;28;20766;-70
2022/08/20 02:10:13;;;;;;;7.55;4.68;;;;;19.40;96172.00;;;;8300761;28;20218;-70
2022/08/20 02:14:18;;;;;;;5.43;4.72;;;;;19.40;96173.00;;;;8300380;28;20308;-72
2022/08/20 02:18:22;;;;;;;4.25;3.95;;;;;19.50;96175.00;;;;8299635;28;20625;-70
2022/08/20 02:22:59;;;;;;;6.13;4.85;;;;;19.50;96183.00;;;;8300076;28;20682;-70
2022/08/20 02:27:02;;;;;;;7.13;5.57;;;;;19.40;96171.00;;;;8299352;28;20291;-70
2022/08/20 02:31:07;;;;;;;5.25;4.68;;;;;19.40;96175.00;;;;8299840;28;20313;-70
2022/08/20 02:35:43;;;;;;;5.10;4.70;;;;;19.30;96165.00;;;;8299064;28;20650;-70
2022/08/20 02:39:47;;;;;;;5.40;4.90;;;;;19.30;96173.00;;;;8299215;28;20232;-70
2022/08/20 02:44:21;;;;;;;5.35;4.85;;;;;19.30;96172.00;;;;8299067;28;20217;-70
2022/08/20 02:48:24;;;;;;;5.65;5.15;;;;;19.20;96171.00;;;;8298917;28;20563;-70
2022/08/20 02:52:28;;;;;;;7.45;5.50;;;;;19.10;96176.00;;;;8288907;28;20493;-70
2022/08/20 02:56:32;;;;;;;6.45;5.85;;;;;19.00;96170.00;;;;8298691;28;20300;-70
2022/08/20 03:00:35;;;;;;;6.97;6.00;;;;;18.90;96173.00;;;;8298756;28;20325;-70
2022/08/20 03:05:10;;;;;;;6.78;6.00;;;;;18.90;96182.00;;;;8299076;28;20217;-70
2022/08/20 03:09:15;;;;;;;8.40;6.85;;;;;18.90;96181.00;;;;8298507;28;20228;-70
2022/08/20 03:13:49;;;;;;;8.18;6.95;;;;;18.90;96190.00;;;;8298280;28;20224;-70
2022/08/20 03:17:52;;;;;;;12.98;7.38;;;;;18.90;96187.00;;;;8297831;28;20225;-69
2022/08/20 03:21:55;;;;;;;10.93;7.55;;;;;18.90;96192.00;;;;8297780;28;20233;-69
2022/08/20 03:26:31;;;;;;;8.65;7.07;;;;;19.00;96190.00;;;;8297756;28;20222;-69
2022/08/20 03:30:36;;;;;;;11.65;6.85;;;;;19.00;96201.00;;;;8297459;28;20302;-69
2022/08/20 03:35:13;;;;;;;9.38;7.28;;;;;19.00;96204.00;;;;8298090;28;20731;-69
2022/08/20 03:39:46;;;;;;;9.00;7.22;;;;;19.00;96199.00;;;;8297035;28;20229;-69
2022/08/20 03:44:25;;;;;;;9.75;7.72;;;;;18.90;96206.00;;;;8297190;28;20248;-70
2022/08/20 03:48:30;;;;;;;13.82;8.30;;;;;18.70;96204.00;;;;8297012;28;20229;-70
2022/08/20 03:52:33;;;;;;;15.38;8.93;;;;;18.60;96214.00;;;;8297507;28;20313;-69
2022/08/20 03:56:36;;;;;;;11.80;8.68;;;;;18.50;96215.00;;;;8296387;28;20225;-69
2022/08/20 04:00:42;;;;;;;12.68;8.88;;;;;18.40;96214.00;;;;8295239;28;20238;-71
2022/08/20 04:05:17;;;;;;;17.02;9.93;;;;;18.30;96216.00;;;;8296582;28;20224;-74
2022/08/20 04:09:51;;;;;;;17.42;10.07;;;;;18.20;96214.00;;;;8296161;28;20304;-73
2022/08/20 04:14:28;;;;;;;15.70;9.98;;;;;18.20;96219.00;;;;8295889;28;20301;-70
2022/08/20 04:19:06;;;;;;;16.23;10.15;;;;;18.10;96208.00;;;;8289488;28;20615;-68
2022/08/20 04:23:10;;;;;;;17.35;9.95;;;;;18.10;96211.00;;;;8295492;28;20711;-68
2022/08/20 04:27:45;;;;;;;15.82;10.68;;;;;18.00;96218.00;;;;8296324;28;20226;-68
2022/08/20 04:32:20;;;;;;;16.02;10.60;;;;;18.00;96221.00;;;;8295980;28;20226;-67
2022/08/20 04:36:56;;;;;;;15.27;10.00;;;;;18.00;96221.00;;;;8295170;28;20367;-67
2022/08/20 04:41:35;;;;;;;14.75;10.75;;;;;18.00;96230.00;;;;8284636;28;20238;-66
2022/08/20 04:45:40;;;;;;;16.70;10.45;;;;;18.00;96216.00;;;;8294736;28;20217;-67
2022/08/20 04:50:14;;;;;;;18.05;11.35;;;;;18.00;96216.00;;;;8295048;28;20233;-66
2022/08/20 04:54:48;;;;;;;16.42;10.77;;;;;18.00;96211.00;;;;8295069;28;20220;-67
2022/08/20 04:59:27;;;;;;;16.55;11.02;;;;;18.10;96230.00;;;;8295950;28;20296;-66
2022/08/20 05:04:01;;;;;;;18.13;11.07;;;;;18.20;96235.00;;;;8294610;28;20301;-67
2022/08/20 05:08:39;;;;;;;19.88;12.13;;;;;18.20;96238.00;;;;8294640;28;20305;-67
2022/08/20 05:13:12;;;;;;;19.60;11.60;;;;;18.30;96239.00;;;;8294650;28;20316;-66
2022/08/20 05:17:54;;;;;;;16.77;11.10;;;;;18.30;96239.00;;;;8294248;28;20228;-66
2022/08/20 05:22:26;;;;;;;20.13;10.85;;;;;18.40;96245.00;;;;8295047;28;20316;-68
2022/08/20 05:26:33;;;;;;;16.17;11.30;;;;;18.50;96256.00;;;;8301522;28;20555;-67
2022/08/20 05:31:08;;;;;;;15.80;11.20;;;;;18.70;96252.00;;;;8301542;28;20229;-68
2022/08/20 05:35:46;;;;;;;15.73;10.88;;;;;18.80;96251.00;;;;8294399;28;20300;-68
2022/08/20 05:40:21;;;;;;;12.85;10.13;;;;;18.90;96259.00;;;;8300139;28;20574;-67
2022/08/20 05:44:55;;;;;;;15.00;10.40;;;;;19.00;96268.00;;;;8300853;28;20217;-68
2022/08/20 05:54:15;;;;;;;13.48;9.77;;;;;19.30;96262.00;;;;8300050;28;20232;-69
2022/08/20 05:58:21;;;;;;;18.50;10.48;;;;;19.30;96273.00;;;;8300333;28;20237;-68
2022/08/20 06:07:03;;;;;;;13.90;10.82;;;;;19.40;96264.00;;;;8299649;28;20218;-68
2022/08/20 06:11:08;;;;;;;13.98;10.25;;;;;19.40;96258.00;;;;8300022;28;20417;-68
2022/08/20 06:15:12;;;;;;;14.63;10.55;;;;;19.50;96253.00;;;;8299906;28;20304;-68
2022/08/20 06:19:47;;;;;;;17.60;10.60;;;;;19.40;96262.00;;;;8299257;28;20304;-72
2022/08/20 06:24:22;;;;;;;14.77;10.95;;;;;19.40;96258.00;;;;8300469;28;20293;-71
2022/08/20 06:29:00;;;;;;;14.23;10.13;;;;;19.40;96260.00;;;;8298969;28;20659;-71
2022/08/20 06:33:34;;;;;;;16.38;10.27;;;;;19.40;96263.00;;;;8297406;28;20218;-71
2022/08/20 06:38:11;;;;;;;17.45;11.48;;;;;19.30;96276.00;;;;8298618;28;20313;-71
2022/08/20 06:42:48;;;;;;;17.20;11.90;;;;;19.30;96278.00;;;;8298043;28;20304;-71
2022/08/20 06:47:26;;;;;;;23.98;11.80;;;;;19.20;96281.00;;;;8297122;28;20237;-67
2022/08/20 06:52:02;;;;;;;20.02;11.85;;;;;19.30;96280.00;;;;8298247;28;20325;-67
2022/08/20 06:56:06;;;;;;;20.20;12.73;;;;;19.50;96277.00;;;;8295794;28;20644;-68
2022/08/20 07:00:43;;;;;;;15.55;11.50;;;;;19.60;96278.00;;;;8298048;28;20234;-67
2022/08/20 07:05:21;;;;;;;21.35;13.63;;;;;19.70;96276.00;;;;8287435;28;20234;-67
2022/08/20 07:09:55;;;;;;;22.60;13.65;;;;;19.70;96279.00;;;;8296633;28;20222;-68
2022/08/20 07:13:58;;;;;;;27.23;15.50;;;;;20.00;96288.00;;;;8296753;28;20676;-67
2022/08/20 07:18:04;;;;;;;26.70;15.82;;;;;20.10;96289.00;;;;8297966;28;20220;-68
2022/08/20 07:22:41;;;;;;;31.17;17.50;;;;;20.20;96293.00;;;;8297474;28;20226;-69
2022/08/20 07:27:15;;;;;;;33.55;17.95;;;;;20.30;96295.00;;;;8297229;28;20222;-69
2022/08/20 07:35:54;;;;;;;34.70;20.20;;;;;20.20;96294.00;;;;8296693;28;20242;-68
2022/08/20 07:40:00;;;;;;;38.78;20.17;;;;;20.20;96305.00;;;;8296827;28;20662;-69
2022/08/20 07:44:38;;;;;;;41.38;22.38;;;;;20.10;96301.00;;;;8297249;28;20563;-71
2022/08/20 07:48:48;;;;;;;43.47;22.77;;;;;20.10;96310.00;;;;8295298;28;20236;-72
2022/08/20 07:52:53;;;;;;;48.70;23.67;;;;;20.10;96313.00;;;;8296757;28;20232;-75
2022/08/20 07:57:28;;;;;;;45.00;24.15;;;;;20.00;96312.00;;;;8295781;28;20244;-70
2022/08/20 08:02:02;;;;;;;49.58;25.10;;;;;20.00;96320.00;;;;8294581;28;20226;-72
2022/08/20 08:06:39;;;;;;;48.92;25.00;;;;;20.00;96320.00;;;;8295713;28;20541;-71
2022/08/20 08:11:18;;;;;;;46.40;24.27;;;;;20.00;96320.00;;;;8295855;28;20566;-70
2022/08/20 08:15:56;;;;;;;50.15;26.65;;;;;20.10;96321.00;;;;8295478;28;20210;-69
2022/08/20 08:20:26;;;;;;;47.88;27.85;;;;;20.00;96321.00;;;;8294844;28;20297;-72
2022/08/20 08:25:04;;;;;;;54.35;26.80;;;;;20.00;96319.00;;;;8295420;28;20249;-67
2022/08/20 08:29:38;;;;;;;49.40;26.55;;;;;20.00;96327.00;;;;8294945;28;20225;-67
2022/08/20 08:34:17;;;;;;;50.47;27.20;;;;;20.00;96323.00;;;;8294873;28;20313;-68
2022/08/20 08:38:50;;;;;;;49.85;27.02;;;;;20.00;96322.00;;;;8295249;28;20222;-68
2022/08/20 08:43:28;;;;;;;51.10;28.40;;;;;19.90;96330.00;;;;8294112;28;20357;-69
2022/08/20 08:48:04;;;;;;;52.03;27.95;;;;;19.90;96347.00;;;;8293894;28;20295;-72
2022/08/20 08:52:43;;;;;;;52.15;28.92;;;;;19.90;96348.00;;;;8293696;28;20723;-73
2022/08/20 08:57:06;;;;;;;57.50;29.55;;;;;19.80;96349.00;;;;8294791;28;20590;-71
2022/08/20 09:01:12;;;;;;;51.97;29.10;;;;;19.80;96350.00;;;;8293511;28;20237;-72
2022/08/20 09:05:48;;;;;;;52.53;28.58;;;;;19.80;96351.00;;;;8294486;28;20264;-72
2022/08/20 09:09:53;;;;;;;50.40;28.40;;;;;19.80;96351.00;;;;8294482;28;20261;-71
2022/08/20 09:13:57;;;;;;;55.38;29.42;;;;;19.70;96358.00;;;;8294281;28;20226;-71
2022/08/20 09:18:00;;;;;;;54.65;29.10;;;;;19.70;96361.00;;;;8295037;28;20217;-71
2022/08/20 09:22:37;;;;;;;54.30;28.48;;;;;19.70;96366.00;;;;8294398;28;20262;-68
2022/08/20 09:27:16;;;;;;;56.03;29.52;;;;;19.70;96354.00;;;;8294170;28;20218;-70
2022/08/20 09:31:19;;;;;;;56.95;30.80;;;;;19.70;96354.00;;;;8294506;28;20691;-69
2022/08/20 09:35:25;;;;;;;60.97;31.63;;;;;19.70;96355.00;;;;8292785;28;20261;-72
2022/08/20 09:39:29;;;;;;;58.65;29.65;;;;;19.60;96353.00;;;;8293498;28;20225;-72
2022/08/20 09:43:33;;;;;;;59.40;31.10;;;;;19.60;96357.00;;;;8292902;28;20221;-70
2022/08/20 09:47:37;;;;;;;60.00;32.28;;;;;19.60;96358.00;;;;8293554;28;20230;-70
2022/08/20 09:51:43;;;;;;;57.30;32.03;;;;;19.60;96361.00;;;;8292627;28;20234;-69
2022/08/20 09:55:49;;;;;;;66.47;37.28;;;;;19.60;96364.00;;;;8293849;28;20230;-70
2022/08/20 09:59:58;;;;;;;60.10;31.05;;;;;19.70;96363.00;;;;8292811;28;20225;-71
2022/08/20 10:04:29;;;;;;;60.00;32.53;;;;;19.70;96372.00;;;;8292610;28;20312;-69
2022/08/20 10:09:05;;;;;;;64.93;32.40;;;;;19.70;96356.00;;;;8293835;28;20222;-69
2022/08/20 10:13:42;;;;;;;69.15;32.53;;;;;19.60;96381.00;;;;8298985;28;20504;-70
2022/08/20 10:18:20;;;;;;;60.60;32.55;;;;;19.60;96378.00;;;;8299059;28;20260;-69
2022/08/20 10:22:26;;;;;;;63.40;32.88;;;;;19.60;96372.00;;;;8299013;28;20228;-69
2022/08/20 10:26:29;;;;;;;71.55;34.05;;;;;19.60;96369.00;;;;8298842;28;20301;-68
2022/08/20 10:31:06;;;;;;;63.20;33.40;;;;;19.70;96376.00;;;;8298661;28;20623;-68
2022/08/20 10:35:45;;;;;;;65.68;34.03;;;;;19.70;96381.00;;;;8283596;28;20548;-67
2022/08/20 10:40:19;;;;;;;72.47;33.72;;;;;19.60;96380.00;;;;8298294;28;20228;-69
2022/08/20 10:44:22;;;;;;;66.85;34.45;;;;;19.60;96383.00;;;;8297418;28;20221;-68
2022/08/20 10:48:26;;;;;;;69.38;35.50;;;;;19.70;96383.00;;;;8298571;28;20224;-68
2022/08/20 10:52:49;;;;;;;62.85;34.50;;;;;19.70;96377.00;;;;8298018;28;20238;-69
2022/08/20 10:57:25;;;;;;;64.93;34.78;;;;;19.70;96378.00;;;;8296756;28;20248;-70
2022/08/20 11:01:59;;;;;;;63.22;33.92;;;;;19.70;96379.00;;;;8296721;28;20230;-71
2022/08/20 11:06:03;;;;;;;67.32;34.22;;;;;19.70;96386.00;;;;8296675;28;20217;-69
2022/08/20 11:10:09;;;;;;;69.72;36.25;;;;;19.80;96396.00;;;;8295994;28;20226;-71
2022/08/20 11:14:15;;;;;;;64.88;34.70;;;;;19.90;96399.00;;;;8297644;28;20219;-71
2022/08/20 11:18:19;;;;;;;59.95;32.92;;;;;19.90;96385.00;;;;8296301;28;20301;-71
2022/08/20 11:22:22;;;;;;;60.45;33.47;;;;;19.90;96378.00;;;;8296786;28;20726;-68
2022/08/20 11:26:27;;;;;;;65.60;34.10;;;;;20.10;96389.00;;;;8284879;28;20316;-68
2022/08/20 11:30:40;;;;;;;59.53;34.10;;;;;20.20;96388.00;;;;8295792;28;20309;-69
2022/08/20 11:35:17;;;;;;;60.35;32.63;;;;;20.30;96390.00;;;;8294916;28;20613;-70
2022/08/20 11:39:53;;;;;;;59.47;34.17;;;;;20.40;96388.00;;;;8295335;28;20596;-70
2022/08/20 11:44:28;;;;;;;61.17;33.45;;;;;20.40;96383.00;;;;8290518;28;20226;-70
2022/08/20 11:49:05;;;;;;;51.53;32.40;;;;;20.50;96387.00;;;;8293735;28;20237;-69
2022/08/20 11:53:42;;;;;;;59.28;33.42;;;;;20.60;96386.00;;;;8292526;28;20222;-69
2022/08/20 11:58:19;;;;;;;58.53;31.92;;;;;20.80;96383.00;;;;8295402;28;20256;-69
2022/08/20 12:02:57;;;;;;;51.03;30.88;;;;;20.80;96384.00;;;;8295179;28;20647;-68
2022/08/20 12:07:09;;;;;;;44.30;28.17;;;;;20.80;96378.00;;;;8295811;28;20303;-69
2022/08/20 12:11:12;;;;;;;46.45;29.67;;;;;20.90;96374.00;;;;8283787;28;20614;-70
2022/08/20 12:15:15;;;;;;;39.22;25.30;;;;;20.90;96373.00;;;;8295125;28;20222;-69
2022/08/20 12:19:55;;;;;;;45.08;28.98;;;;;21.00;96370.00;;;;8295850;28;20221;-70
2022/08/20 12:24:29;;;;;;;46.40;28.65;;;;;21.00;96364.00;;;;8294949;28;20607;-69
2022/08/20 12:29:06;;;;;;;43.20;28.77;;;;;21.10;96371.00;;;;8295524;28;20238;-69
2022/08/20 12:33:43;;;;;;;44.10;27.08;;;;;21.30;96372.00;;;;8291845;28;20218;-69
2022/08/20 12:38:20;;;;;;;34.90;23.67;;;;;21.60;96385.00;;;;8294667;28;20254;-69
2022/08/20 12:42:58;;;;;;;36.85;25.15;;;;;21.60;96383.00;;;;8293772;28;20304;-69
2022/08/20 12:47:14;;;;;;;37.65;24.77;;;;;21.70;96374.00;;;;8294941;28;20221;-70
2022/08/20 12:51:17;;;;;;;38.00;26.23;;;;;21.70;96377.00;;;;8293672;28;20228;-70
2022/08/20 12:55:51;;;;;;;38.05;25.27;;;;;21.90;96381.00;;;;8294710;28;20312;-70
2022/08/20 13:00:31;;;;;;;34.90;25.35;;;;;22.10;96383.00;;;;8294750;28;20221;-69
2022/08/20 13:05:10;;;;;;;38.60;25.40;;;;;22.20;96382.00;;;;8294028;28;20284;-69
2022/08/20 13:09:44;;;;;;;34.92;24.83;;;;;22.30;96373.00;;;;8294015;28;20300;-70
2022/08/20 13:14:22;;;;;;;38.25;25.52;;;;;22.40;96365.00;;;;8294111;28;20313;-70
2022/08/20 13:19:01;;;;;;;34.83;22.88;;;;;22.40;96369.00;;;;8293681;28;20305;-70
2022/08/20 13:23:38;;;;;;;33.17;23.67;;;;;22.50;96365.00;;;;8293756;28;20253;-69
2022/08/20 13:28:15;;;;;;;32.22;22.65;;;;;22.80;96370.00;;;;8293886;28;20309;-70
2022/08/20 13:32:51;;;;;;;32.75;23.40;;;;;22.90;96361.00;;;;8293858;28;20222;-71
2022/08/20 13:37:30;;;;;;;32.72;22.23;;;;;23.20;96362.00;;;;8293090;28;20222;-69
2022/08/20 13:42:04;;;;;;;31.95;23.38;;;;;23.40;96361.00;;;;8294000;28;20232;-70
2022/08/20 13:46:41;;;;;;;26.63;20.80;;;;;23.60;96355.00;;;;8299669;28;20252;-69
2022/08/20 13:50:45;;;;;;;31.73;21.52;;;;;23.80;96358.00;;;;8299017;28;20228;-69
2022/08/20 13:55:22;;;;;;;33.60;21.60;;;;;24.00;96354.00;;;;8299016;28;20330;-69
2022/08/20 13:59:57;;;;;;;27.85;19.17;;;;;24.30;96349.00;;;;8300867;28;20598;-69
2022/08/20 14:04:01;;;;;;;26.95;21.33;;;;;24.40;96348.00;;;;8299688;28;20222;-70
2022/08/20 14:08:37;;;;;;;29.92;22.30;;;;;24.50;96343.00;;;;8300335;28;20236;-72
2022/08/20 14:12:42;;;;;;;30.02;22.02;;;;;24.60;96352.00;;;;8299596;28;20624;-72
2022/08/20 14:16:47;;;;;;;31.45;22.52;;;;;24.70;96349.00;;;;8299257;28;20671;-70
2022/08/20 14:21:21;;;;;;;32.20;22.85;;;;;24.80;96353.00;;;;8298896;28;20229;-70
2022/08/20 14:25:58;;;;;;;29.27;22.45;;;;;24.90;96342.00;;;;8298559;28;20225;-71
2022/08/20 14:30:05;;;;;;;32.47;21.80;;;;;24.90;96341.00;;;;8299840;28;20224;-70
2022/08/20 14:34:08;;;;;;;25.63;20.10;;;;;25.00;96349.00;;;;8298712;28;20241;-70
2022/08/20 14:38:45;;;;;;;27.23;21.35;;;;;24.90;96344.00;;;;8299158;28;20228;-70
2022/08/20 14:42:48;;;;;;;28.35;21.50;;;;;24.90;96350.00;;;;8297316;28;20651;-70
2022/08/20 14:47:27;;;;;;;30.65;22.08;;;;;24.90;96344.00;;;;8298831;28;20544;-70
2022/08/20 14:56:45;;;;;;;32.40;22.05;;;;;25.10;96338.00;;;;8298079;28;20268;-70
2022/08/20 15:00:49;;;;;;;28.38;22.60;;;;;25.10;96333.00;;;;8297509;28;20222;-71
2022/08/20 15:05:25;;;;;;;32.08;21.17;;;;;25.20;96330.00;;;;8298041;28;20233;-71
2022/08/20 15:09:31;;;;;;;29.23;22.23;;;;;25.20;96341.00;;;;8297725;28;20214;-72
2022/08/20 15:14:05;;;;;;;29.70;21.88;;;;;24.90;96342.00;;;;8298487;28;20229;-73
2022/08/20 15:18:10;;;;;;;28.90;20.88;;;;;24.80;96340.00;;;;8297425;28;20222;-74
2022/08/20 15:22:48;;;;;;;27.98;21.48;;;;;24.90;96328.00;;;;8297280;28;20234;-73
2022/08/20 15:27:24;;;;;;;27.98;21.88;;;;;24.80;96343.00;;;;8297299;28;20223;-73
2022/08/20 15:31:59;;;;;;;24.52;20.00;;;;;24.70;96344.00;;;;8297392;28;20309;-73
2022/08/20 15:36:03;;;;;;;28.95;21.25;;;;;24.40;96351.00;;;;8297408;28;20628;-70
2022/08/20 15:40:37;;;;;;;29.63;20.65;;;;;24.10;96364.00;;;;8296261;28;20735;-73
2022/08/20 15:45:18;;;;;;;26.60;20.13;;;;;24.00;96370.00;;;;8296839;28;20636;-73
2022/08/20 15:49:24;;;;;;;28.20;20.67;;;;;23.90;96368.00;;;;8295554;28;20240;-73
2022/08/20 15:53:55;;;;;;;29.02;21.70;;;;;23.70;96364.00;;;;8296728;28;20248;-73
2022/08/20 15:58:34;;;;;;;29.95;20.95;;;;;23.60;96371.00;;;;8292533;28;20610;-73
2022/08/20 16:03:20;;;;;;;33.20;21.52;;;;;23.50;96384.00;;;;8287676;28;20496;-73
2022/08/20 16:07:33;;;;;;;33.20;23.08;;;;;23.30;96381.00;;;;8274887;28;20214;-73
2022/08/20 16:12:02;;;;;;;15.98;13.40;;;;;22.90;96379.00;;;;8295588;28;20228;-74
2022/08/20 16:16:35;;;;;;;15.13;12.88;;;;;22.40;96392.00;;;;8295922;28;20247;-74
2022/08/20 16:21:09;;;;;;;16.77;10.48;;;;;21.50;96394.00;;;;8294703;28;20305;-73
2022/08/20 16:25:55;;;;;;;24.80;13.00;;;;;20.60;96405.00;;;;8294533;28;20232;-80
2022/08/20 16:30:29;;;;;;;22.10;12.48;;;;;20.30;96407.00;;;;8290096;28;20305;-76
2022/08/20 16:34:58;;;;;;;24.63;13.10;;;;;20.10;96402.00;;;;8295687;28;20221;-72
2022/08/20 16:39:37;;;;;;;17.17;11.88;;;;;20.00;96407.00;;;;8293662;28;20222;-68
2022/08/20 16:44:07;;;;;;;20.00;13.00;;;;;20.00;96402.00;;;;8294476;28;20237;-69
2022/08/20 16:48:56;;;;;;;21.33;13.52;;;;;19.80;96397.00;;;;8294800;28;20304;-70
2022/08/20 16:53:22;;;;;;;24.70;14.10;;;;;19.80;96402.00;;;;8293075;28;20237;-69
2022/08/20 16:57:59;;;;;;;24.60;13.40;;;;;19.80;96401.00;;;;8294035;28;20301;-69
2022/08/20 17:02:35;;;;;;;23.25;13.63;;;;;19.80;96392.00;;;;8294469;28;20245;-68
2022/08/20 17:07:14;;;;;;;25.20;14.20;;;;;19.80;96392.00;;;;8293346;28;20279;-68
2022/08/20 17:11:51;;;;;;;28.42;15.15;;;;;19.90;96394.00;;;;8293992;28;20614;-68
2022/08/20 17:16:32;;;;;;;23.95;14.25;;;;;19.90;96398.00;;;;8294284;28;20228;-68
2022/08/20 17:21:04;;;;;;;22.30;13.85;;;;;20.00;96403.00;;;;8304261;28;20573;-69
2022/08/20 17:25:43;;;;;;;24.30;14.32;;;;;20.00;96414.00;;;;8304085;28;20231;-69
2022/08/20 17:30:19;;;;;;;23.17;14.07;;;;;20.00;96418.00;;;;8304474;28;20589;-71
2022/08/20 17:34:55;;;;;;;24.73;13.80;;;;;20.00;96418.00;;;;8304706;28;20296;-73
2022/08/20 17:39:30;;;;;;;33.88;13.18;;;;;19.90;96425.00;;;;8303963;28;20233;-72
2022/08/20 17:44:06;;;;;;;21.58;11.63;;;;;19.70;96430.00;;;;8304698;28;20269;-70
2022/08/20 17:48:43;;;;;;;22.17;12.07;;;;;19.60;96424.00;;;;8304283;28;20554;-72
2022/08/20 17:52:51;;;;;;;23.90;12.23;;;;;19.60;96410.00;;;;8303831;28;20222;-70
2022/08/20 17:57:23;;;;;;;27.75;11.85;;;;;19.50;96415.00;;;;8303869;28;20555;-72
2022/08/20 18:01:57;;;;;;;25.38;13.15;;;;;19.50;96429.00;;;;8303842;28;20222;-70
2022/08/20 18:06:40;;;;;;;27.30;12.40;;;;;19.40;96422.00;;;;8304015;28;20225;-72
2022/08/20 18:11:16;;;;;;;35.80;15.48;;;;;19.30;96440.00;;;;8303480;28;20222;-71
2022/08/20 18:15:29;;;;;;;34.67;15.00;;;;;19.30;96449.00;;;;8304765;28;20217;-74
2022/08/20 18:20:11;;;;;;;42.45;13.85;;;;;19.20;96453.00;;;;8304278;28;20229;-70
2022/08/20 18:24:20;;;;;;;30.88;13.63;;;;;19.30;96461.00;;;;8303825;28;20656;-74
2022/08/20 18:28:53;;;;;;;28.75;12.88;;;;;19.20;96431.00;;;;8303589;28;20222;-71
2022/08/20 18:33:04;;;;;;;22.20;10.13;;;;;19.20;96430.00;;;;8299273;28;20221;-70
2022/08/20 18:37:34;;;;;;;21.90;10.23;;;;;19.20;96420.00;;;;8299425;28;20230;-70
2022/08/20 18:42:25;;;;;;;15.48;9.10;;;;;19.20;96420.00;;;;8297504;28;20218;-69
2022/08/20 18:46:54;;;;;;;14.45;8.63;;;;;19.20;96426.00;;;;8298682;28;20308;-70
2022/08/20 18:56:14;;;;;;;10.90;6.18;;;;;18.80;96437.00;;;;8298216;28;20599;-70
2022/08/20 19:00:51;;;;;;;9.35;4.43;;;;;18.70;96426.00;;;;8297239;28;20308;-68
2022/08/20 19:04:59;;;;;;;6.82;4.05;;;;;18.60;96420.00;;;;8296908;28;20246;-70
2022/08/20 19:09:11;;;;;;;6.72;4.40;;;;;18.70;96419.00;;;;8297841;28;20263;-69
2022/08/20 19:13:46;;;;;;;7.75;4.47;;;;;18.80;96418.00;;;;8297483;28;20317;-73
2022/08/20 19:18:15;;;;;;;9.93;4.55;;;;;18.80;96414.00;;;;8297131;28;20305;-75
2022/08/20 19:22:52;;;;;;;6.43;3.90;;;;;18.80;96423.00;;;;8297260;28;20263;-75
2022/08/20 19:27:03;;;;;;;8.35;4.15;;;;;18.70;96419.00;;;;8296437;28;20229;-76
2022/08/20 19:31:33;;;;;;;7.95;4.35;;;;;18.70;96415.00;;;;8296977;28;20293;-75
2022/08/20 19:36:12;;;;;;;6.65;3.90;;;;;18.70;96416.00;;;;8297009;28;20256;-75
2022/08/20 19:40:50;;;;;;;5.45;3.42;;;;;18.50;96416.00;;;;8296492;28;20234;-76
2022/08/20 19:45:23;;;;;;;10.30;4.30;;;;;18.40;96410.00;;;;8295596;28;20304;-77
2022/08/20 19:49:56;;;;;;;7.97;3.95;;;;;18.30;96414.00;;;;8296435;28;20237;-77
2022/08/20 19:54:25;;;;;;;6.35;3.88;;;;;18.40;96410.00;;;;8295614;28;20232;-78
2022/08/20 19:59:04;;;;;;;6.05;4.25;;;;;18.40;96408.00;;;;8296286;28;20313;-77
2022/08/20 20:03:36;;;;;;;12.30;4.10;;;;;18.40;96407.00;;;;8295164;28;20232;-77
2022/08/20 20:08:13;;;;;;;6.15;4.35;;;;;18.50;96408.00;;;;8295880;28;20229;-77
2022/08/20 20:12:47;;;;;;;6.97;4.50;;;;;18.60;96412.00;;;;8295125;28;20265;-78
2022/08/20 20:17:03;;;;;;;6.68;4.40;;;;;18.60;96412.00;;;;8295419;28;20301;-77
2022/08/20 20:21:13;;;;;;;9.93;4.40;;;;;18.60;96410.00;;;;8295891;28;20217;-76
2022/08/20 20:25:45;;;;;;;7.93;4.75;;;;;18.50;96404.00;;;;8295009;28;20579;-73
2022/08/20 20:30:34;;;;;;;9.95;4.50;;;;;18.50;96408.00;;;;8295551;28;20489;-77
2022/08/20 20:34:40;;;;;;;8.85;4.82;;;;;18.60;96407.00;;;;8294846;28;20245;-79
2022/08/20 20:39:00;;;;;;;9.02;4.97;;;;;18.60;96409.00;;;;8295276;28;20230;-77
2022/08/20 20:43:06;;;;;;;7.88;4.47;;;;;18.60;96400.00;;;;8284040;28;20222;-77
2022/08/20 20:47:20;;;;;;;7.22;5.38;;;;;18.60;96409.00;;;;8294160;28;20339;-77
2022/08/20 20:51:54;;;;;;;8.60;4.93;;;;;18.60;96404.00;;;;8293800;28;20626;-79
2022/08/20 20:56:29;;;;;;;9.23;4.43;;;;;18.60;96406.00;;;;8294141;28;20685;-71
2022/08/20 21:00:34;;;;;;;10.25;5.40;;;;;18.50;96399.00;;;;8294202;28;20616;-70
2022/08/20 21:05:09;;;;;;;11.18;5.40;;;;;18.50;96404.00;;;;8294687;28;20261;-71
2022/08/20 21:09:13;;;;;;;16.52;6.28;;;;;18.50;96396.00;;;;8293926;28;20217;-71
2022/08/20 21:13:16;;;;;;;19.67;6.15;;;;;18.50;96397.00;;;;8293265;28;20222;-71
2022/08/20 21:17:22;;;;;;;11.40;6.07;;;;;18.50;96394.00;;;;8294208;28;20226;-72
2022/08/20 21:21:25;;;;;;;9.88;5.57;;;;;18.50;96390.00;;;;8291981;28;20662;-71
2022/08/20 21:26:04;;;;;;;17.02;6.72;;;;;18.40;96388.00;;;;8294188;28;20228;-71
2022/08/20 21:30:08;;;;;;;15.77;7.80;;;;;18.40;96389.00;;;;8293562;28;20214;-71
2022/08/20 21:34:13;;;;;;;16.92;8.23;;;;;18.30;96391.00;;;;8293809;28;20305;-71
2022/08/20 21:38:16;;;;;;;15.20;7.13;;;;;18.40;96391.00;;;;8293698;28;20300;-72
2022/08/20 21:42:23;;;;;;;19.38;8.00;;;;;18.40;96391.00;;;;8293469;28;20222;-72
2022/08/20 21:46:31;;;;;;;19.45;8.05;;;;;18.40;96390.00;;;;8293941;28;20233;-72
2022/08/20 21:50:36;;;;;;;19.13;8.57;;;;;18.40;96398.00;;;;8293506;28;20312;-72
2022/08/20 21:59:57;;;;;;;21.00;9.10;;;;;18.50;96392.00;;;;8293790;28;20335;-72